Layton, Utah
Current Conditions -  °F | °C
As of 7:58 PM on Saturday 24 Jan 2015 (Local Time) from KHIF Reporting Station
Overcast Overcast  
Wind Chill: 31°   Ceiling: 3700
Heat Index: 35°   Visibility: 10mi
Dew Point: 21°   Wind: 5mph
Humidity: 58%   Direction: 340°NNW
Pressure: 30.45"   Gusts: NA
Location:  41.07°N, 111.96°W
Report Text: KHIF 250258Z AUTO 34004KT 10SM OVC037 02/M06 A3045 RMK AO2 SLP330 T00161059 52004
Loading
Personal Weather Stations






























Interactive Weather Map New forecast layout! Learn more

10-Day Weather Forecast

Advertisements
Track Severe Weather on mobile